This is the latest recevied weather packets stored in our database for station/object OM4MO-10. If no packets are shown the sender has not sent any weather packets the latest 10 day(s).
| Time | Temp. | Humidity | Pressure | Rain* | Wind** | Luminosity | Snow |
|---|---|---|---|---|---|---|---|
| 1777600250 | 2.78° C | 100% | 1028.4 hPa | - | - | - | - |
| 1777599050 | 2.78° C | 100% | 1028.5 hPa | - | - | - | - |
| 1777597850 | 2.78° C | 100% | 1028.6 hPa | - | - | - | - |
| 1777596650 | 3.33° C | 95% | 1028.4 hPa | - | - | - | - |
| 1777595449 | 3.33° C | 95% | 1028.4 hPa | - | - | - | - |
| 1777594249 | 2.22° C | 100% | 1028.3 hPa | - | - | - | - |
| 1777593049 | 3.33° C | 91% | 1027.4 hPa | - | - | - | - |
| 1777591849 | 3.89° C | 90% | 1027.9 hPa | - | - | - | - |
| 1777590649 | 2.78° C | 100% | 1027.5 hPa | - | - | - | - |
| 1777589449 | 2.78° C | 98% | 1024.2 hPa | - | - | - | - |
| 1777588249 | 1.67° C | 100% | 1023.3 hPa | - | - | - | - |
| 1777587049 | 2.78° C | 100% | 1022.9 hPa | - | - | - | - |
| 1777585849 | 1.67° C | 100% | 1022.7 hPa | - | - | - | - |
| 1777584649 | 2.22° C | 99% | 1022.4 hPa | - | - | - | - |
| 1777583448 | 2.22° C | 99% | 1022.5 hPa | - | - | - | - |
| 1777582248 | 2.78° C | 97% | 1022.4 hPa | - | - | - | - |
| 1777581048 | 3.89° C | 82% | 1024.1 hPa | - | - | - | - |
| 1777579848 | 3.33° C | 94% | 1023 hPa | - | - | - | - |
| 1777578648 | 5° C | 80% | 1024.9 hPa | - | - | - | - |
| 1777577448 | 4.44° C | 72% | 1026.7 hPa | - | - | - | - |
| 1777576248 | 5.56° C | 67% | 1027.9 hPa | - | - | - | - |
| 1777575048 | 6.67° C | 57% | 1030.3 hPa | - | - | - | - |
| 1777573847 | 7.22° C | 50% | 1032.6 hPa | - | - | - | - |
| 1777572647 | 7.78° C | 44% | 1035.5 hPa | - | - | - | - |
| 1777571447 | 9.44° C | 38% | 1038.9 hPa | - | - | - | - |
* Rain since midnight (hover to see other rain measurements)
** Current wind speed in m/s (hover to see current wind gust speed)